sensor_id;sensor_type;location;lat;lon;timestamp;temperature;humidity
18317;DHT22;9284;52.298;21.164;2024-02-23T00:01:48;8.70;82.00
18317;DHT22;9284;52.298;21.164;2024-02-23T00:04:17;8.70;99.90
18317;DHT22;9284;52.298;21.164;2024-02-23T00:06:47;8.70;93.40
18317;DHT22;9284;52.298;21.164;2024-02-23T00:09:15;8.70;99.90
18317;DHT22;9284;52.298;21.164;2024-02-23T00:11:44;8.70;99.90
18317;DHT22;9284;52.298;21.164;2024-02-23T00:14:12;8.70;99.90
18317;DHT22;9284;52.298;21.164;2024-02-23T00:16:41;8.70;99.90
18317;DHT22;9284;52.298;21.164;2024-02-23T00:19:10;8.70;99.90
18317;DHT22;9284;52.298;21.164;2024-02-23T00:21:38;8.70;99.90
18317;DHT22;9284;52.298;21.164;2024-02-23T00:24:08;8.70;99.90
18317;DHT22;9284;52.298;21.164;2024-02-23T00:26:36;8.70;99.90
18317;DHT22;9284;52.298;21.164;2024-02-23T00:29:05;8.70;99.90
18317;DHT22;9284;52.298;21.164;2024-02-23T00:31:33;8.70;93.10
18317;DHT22;9284;52.298;21.164;2024-02-23T00:34:03;8.70;99.90
18317;DHT22;9284;52.298;21.164;2024-02-23T00:36:31;8.70;99.90
18317;DHT22;9284;52.298;21.164;2024-02-23T00:38:59;8.70;99.90
18317;DHT22;9284;52.298;21.164;2024-02-23T00:41:29;8.70;99.90
18317;DHT22;9284;52.298;21.164;2024-02-23T00:43:57;8.70;99.90
18317;DHT22;9284;52.298;21.164;2024-02-23T00:46:26;8.70;99.90
18317;DHT22;9284;52.298;21.164;2024-02-23T00:48:54;8.70;99.90
18317;DHT22;9284;52.298;21.164;2024-02-23T00:51:23;8.70;99.90
18317;DHT22;9284;52.298;21.164;2024-02-23T00:53:51;8.70;99.90
18317;DHT22;9284;52.298;21.164;2024-02-23T00:56:20;8.60;99.90
18317;DHT22;9284;52.298;21.164;2024-02-23T00:59:00;8.70;99.90
18317;DHT22;9284;52.298;21.164;2024-02-23T01:01:28;8.70;99.90
18317;DHT22;9284;52.298;21.164;2024-02-23T01:03:56;8.70;99.90
18317;DHT22;9284;52.298;21.164;2024-02-23T01:06:25;8.70;99.90
18317;DHT22;9284;52.298;21.164;2024-02-23T01:08:55;8.80;99.90
18317;DHT22;9284;52.298;21.164;2024-02-23T01:11:23;8.80;99.90
18317;DHT22;9284;52.298;21.164;2024-02-23T01:13:52;8.80;99.90
18317;DHT22;9284;52.298;21.164;2024-02-23T01:16:21;8.80;99.90
18317;DHT22;9284;52.298;21.164;2024-02-23T01:18:50;8.70;99.90
18317;DHT22;9284;52.298;21.164;2024-02-23T01:21:18;8.70;99.90
18317;DHT22;9284;52.298;21.164;2024-02-23T01:23:46;8.70;99.90
18317;DHT22;9284;52.298;21.164;2024-02-23T01:26:15;8.70;99.90
18317;DHT22;9284;52.298;21.164;2024-02-23T01:28:43;8.70;99.90
18317;DHT22;9284;52.298;21.164;2024-02-23T01:31:12;8.60;99.90
18317;DHT22;9284;52.298;21.164;2024-02-23T01:33:41;8.60;99.90
18317;DHT22;9284;52.298;21.164;2024-02-23T01:36:10;8.70;99.90
18317;DHT22;9284;52.298;21.164;2024-02-23T01:38:38;8.70;99.90
18317;DHT22;9284;52.298;21.164;2024-02-23T01:41:09;8.70;99.90
18317;DHT22;9284;52.298;21.164;2024-02-23T01:43:39;8.70;99.90
18317;DHT22;9284;52.298;21.164;2024-02-23T01:46:07;8.60;99.90
18317;DHT22;9284;52.298;21.164;2024-02-23T01:48:36;8.60;99.90
18317;DHT22;9284;52.298;21.164;2024-02-23T01:51:06;8.70;99.90
18317;DHT22;9284;52.298;21.164;2024-02-23T01:53:34;8.70;99.90
18317;DHT22;9284;52.298;21.164;2024-02-23T01:56:03;8.80;99.90
18317;DHT22;9284;52.298;21.164;2024-02-23T01:58:33;8.80;99.90
18317;DHT22;9284;52.298;21.164;2024-02-23T02:01:03;8.80;99.90
18317;DHT22;9284;52.298;21.164;2024-02-23T02:03:32;8.80;99.90
18317;DHT22;9284;52.298;21.164;2024-02-23T02:06:01;8.80;99.90
18317;DHT22;9284;52.298;21.164;2024-02-23T02:08:31;8.80;99.90
18317;DHT22;9284;52.298;21.164;2024-02-23T02:11:00;8.80;99.90
18317;DHT22;9284;52.298;21.164;2024-02-23T02:13:29;8.80;99.90
18317;DHT22;9284;52.298;21.164;2024-02-23T02:15:58;8.90;99.90
18317;DHT22;9284;52.298;21.164;2024-02-23T02:18:29;8.90;99.90
18317;DHT22;9284;52.298;21.164;2024-02-23T02:20:57;8.90;99.90
18317;DHT22;9284;52.298;21.164;2024-02-23T02:23:26;8.90;99.90
18317;DHT22;9284;52.298;21.164;2024-02-23T02:25:56;8.90;99.90
18317;DHT22;9284;52.298;21.164;2024-02-23T02:28:25;8.90;99.90
18317;DHT22;9284;52.298;21.164;2024-02-23T02:30:54;8.90;99.90
18317;DHT22;9284;52.298;21.164;2024-02-23T02:33:23;8.90;99.90
18317;DHT22;9284;52.298;21.164;2024-02-23T02:35:51;8.90;99.90
18317;DHT22;9284;52.298;21.164;2024-02-23T02:38:19;8.90;99.90
18317;DHT22;9284;52.298;21.164;2024-02-23T02:40:48;8.90;99.90
18317;DHT22;9284;52.298;21.164;2024-02-23T02:43:17;9.00;99.90
18317;DHT22;9284;52.298;21.164;2024-02-23T02:45:46;9.10;99.90
18317;DHT22;9284;52.298;21.164;2024-02-23T02:48:14;9.10;99.90
18317;DHT22;9284;52.298;21.164;2024-02-23T02:50:43;9.00;99.90
18317;DHT22;9284;52.298;21.164;2024-02-23T02:53:12;9.00;99.90
18317;DHT22;9284;52.298;21.164;2024-02-23T02:55:42;9.10;99.90
18317;DHT22;9284;52.298;21.164;2024-02-23T02:58:11;9.00;99.90
18317;DHT22;9284;52.298;21.164;2024-02-23T03:00:41;9.00;99.90
18317;DHT22;9284;52.298;21.164;2024-02-23T03:03:10;9.00;99.90
18317;DHT22;9284;52.298;21.164;2024-02-23T03:05:39;9.00;99.90
18317;DHT22;9284;52.298;21.164;2024-02-23T03:08:08;9.00;99.90
18317;DHT22;9284;52.298;21.164;2024-02-23T03:10:36;9.00;99.90
18317;DHT22;9284;52.298;21.164;2024-02-23T03:13:05;9.00;99.90
18317;DHT22;9284;52.298;21.164;2024-02-23T03:15:34;8.90;1.00
18317;DHT22;9284;52.298;21.164;2024-02-23T03:18:03;8.90;1.00
18317;DHT22;9284;52.298;21.164;2024-02-23T03:20:32;8.90;1.00
18317;DHT22;9284;52.298;21.164;2024-02-23T03:23:00;8.90;1.00
18317;DHT22;9284;52.298;21.164;2024-02-23T03:25:30;9.00;1.00
18317;DHT22;9284;52.298;21.164;2024-02-23T03:27:59;8.90;1.00
18317;DHT22;9284;52.298;21.164;2024-02-23T03:30:27;8.90;1.00
18317;DHT22;9284;52.298;21.164;2024-02-23T03:32:55;8.90;1.00
18317;DHT22;9284;52.298;21.164;2024-02-23T03:35:25;8.80;99.90
18317;DHT22;9284;52.298;21.164;2024-02-23T03:37:53;8.70;1.00
18317;DHT22;9284;52.298;21.164;2024-02-23T03:40:22;8.60;1.00
18317;DHT22;9284;52.298;21.164;2024-02-23T03:42:50;8.50;99.90
18317;DHT22;9284;52.298;21.164;2024-02-23T03:45:18;8.40;1.00
18317;DHT22;9284;52.298;21.164;2024-02-23T03:47:47;8.30;1.00
18317;DHT22;9284;52.298;21.164;2024-02-23T03:50:15;8.20;99.90
18317;DHT22;9284;52.298;21.164;2024-02-23T03:52:45;8.00;99.90
18317;DHT22;9284;52.298;21.164;2024-02-23T03:55:14;7.90;99.90
18317;DHT22;9284;52.298;21.164;2024-02-23T03:57:42;7.90;99.90
18317;DHT22;9284;52.298;21.164;2024-02-23T04:00:14;7.80;99.90
18317;DHT22;9284;52.298;21.164;2024-02-23T04:02:42;7.70;1.00
18317;DHT22;9284;52.298;21.164;2024-02-23T04:05:11;7.60;1.00
18317;DHT22;9284;52.298;21.164;2024-02-23T04:07:39;7.60;94.90
18317;DHT22;9284;52.298;21.164;2024-02-23T04:10:09;7.50;1.00
18317;DHT22;9284;52.298;21.164;2024-02-23T04:12:43;7.50;1.00
18317;DHT22;9284;52.298;21.164;2024-02-23T04:15:11;7.40;99.90
18317;DHT22;9284;52.298;21.164;2024-02-23T04:17:40;7.50;99.90
18317;DHT22;9284;52.298;21.164;2024-02-23T04:20:09;7.40;99.90
18317;DHT22;9284;52.298;21.164;2024-02-23T04:22:38;7.40;99.90
18317;DHT22;9284;52.298;21.164;2024-02-23T04:25:07;7.40;1.00
18317;DHT22;9284;52.298;21.164;2024-02-23T04:27:36;7.40;1.00
18317;DHT22;9284;52.298;21.164;2024-02-23T04:30:06;7.30;1.00
18317;DHT22;9284;52.298;21.164;2024-02-23T04:32:35;7.40;1.00
18317;DHT22;9284;52.298;21.164;2024-02-23T04:35:04;7.40;1.00
18317;DHT22;9284;52.298;21.164;2024-02-23T04:37:33;7.40;1.00
18317;DHT22;9284;52.298;21.164;2024-02-23T04:40:04;7.30;1.00
18317;DHT22;9284;52.298;21.164;2024-02-23T04:42:33;7.40;1.00
18317;DHT22;9284;52.298;21.164;2024-02-23T04:45:03;7.40;1.00
18317;DHT22;9284;52.298;21.164;2024-02-23T04:47:31;7.40;1.00
18317;DHT22;9284;52.298;21.164;2024-02-23T04:50:00;7.40;1.00
18317;DHT22;9284;52.298;21.164;2024-02-23T04:52:30;7.30;1.00
18317;DHT22;9284;52.298;21.164;2024-02-23T04:54:58;7.40;1.00
18317;DHT22;9284;52.298;21.164;2024-02-23T04:57:27;7.40;1.00
18317;DHT22;9284;52.298;21.164;2024-02-23T04:59:55;7.40;1.00
18317;DHT22;9284;52.298;21.164;2024-02-23T05:02:25;7.40;1.00
18317;DHT22;9284;52.298;21.164;2024-02-23T05:04:56;7.40;1.00
18317;DHT22;9284;52.298;21.164;2024-02-23T05:07:25;7.40;1.00
18317;DHT22;9284;52.298;21.164;2024-02-23T05:09:53;7.40;1.00
18317;DHT22;9284;52.298;21.164;2024-02-23T05:12:21;7.40;1.00
18317;DHT22;9284;52.298;21.164;2024-02-23T05:14:49;7.40;1.00
18317;DHT22;9284;52.298;21.164;2024-02-23T05:17:18;7.40;1.00
18317;DHT22;9284;52.298;21.164;2024-02-23T05:19:47;7.40;1.00
18317;DHT22;9284;52.298;21.164;2024-02-23T05:22:16;7.40;1.00
18317;DHT22;9284;52.298;21.164;2024-02-23T05:24:44;7.40;1.00
18317;DHT22;9284;52.298;21.164;2024-02-23T05:27:12;7.40;1.00
18317;DHT22;9284;52.298;21.164;2024-02-23T05:29:41;7.40;1.00
18317;DHT22;9284;52.298;21.164;2024-02-23T05:32:09;7.40;1.00
18317;DHT22;9284;52.298;21.164;2024-02-23T05:34:37;7.40;1.00
18317;DHT22;9284;52.298;21.164;2024-02-23T05:37:08;7.30;1.00
18317;DHT22;9284;52.298;21.164;2024-02-23T05:39:36;7.40;1.00
18317;DHT22;9284;52.298;21.164;2024-02-23T05:42:05;7.40;1.00
18317;DHT22;9284;52.298;21.164;2024-02-23T05:44:34;7.40;1.00
18317;DHT22;9284;52.298;21.164;2024-02-23T05:47:02;7.40;1.00
18317;DHT22;9284;52.298;21.164;2024-02-23T05:49:31;7.40;1.00
18317;DHT22;9284;52.298;21.164;2024-02-23T05:52:00;7.40;3.60
18317;DHT22;9284;52.298;21.164;2024-02-23T05:54:30;7.50;5.70
18317;DHT22;9284;52.298;21.164;2024-02-23T05:56:58;7.50;10.40
18317;DHT22;9284;52.298;21.164;2024-02-23T05:59:27;7.50;18.10
18317;DHT22;9284;52.298;21.164;2024-02-23T06:01:56;7.50;21.80
18317;DHT22;9284;52.298;21.164;2024-02-23T06:04:25;7.50;26.50
18317;DHT22;9284;52.298;21.164;2024-02-23T06:06:54;7.50;35.90
18317;DHT22;9284;52.298;21.164;2024-02-23T06:09:22;7.50;45.50
18317;DHT22;9284;52.298;21.164;2024-02-23T06:11:52;7.50;55.50
18317;DHT22;9284;52.298;21.164;2024-02-23T06:14:20;7.50;66.30
18317;DHT22;9284;52.298;21.164;2024-02-23T06:16:50;7.50;78.90
18317;DHT22;9284;52.298;21.164;2024-02-23T06:19:18;7.50;89.40
18317;DHT22;9284;52.298;21.164;2024-02-23T06:21:48;7.60;92.50
18317;DHT22;9284;52.298;21.164;2024-02-23T06:24:17;7.60;94.40
18317;DHT22;9284;52.298;21.164;2024-02-23T06:26:45;7.60;95.30
18317;DHT22;9284;52.298;21.164;2024-02-23T06:29:17;7.60;97.80
18317;DHT22;9284;52.298;21.164;2024-02-23T06:31:45;7.60;99.90
18317;DHT22;9284;52.298;21.164;2024-02-23T06:34:16;7.70;99.90
18317;DHT22;9284;52.298;21.164;2024-02-23T06:36:45;7.70;99.90
18317;DHT22;9284;52.298;21.164;2024-02-23T06:39:13;7.70;99.90
18317;DHT22;9284;52.298;21.164;2024-02-23T06:41:45;7.70;99.90
18317;DHT22;9284;52.298;21.164;2024-02-23T06:44:13;7.80;99.90
18317;DHT22;9284;52.298;21.164;2024-02-23T06:46:43;7.70;99.90
18317;DHT22;9284;52.298;21.164;2024-02-23T06:49:12;7.70;99.90
18317;DHT22;9284;52.298;21.164;2024-02-23T06:51:41;7.70;99.90
18317;DHT22;9284;52.298;21.164;2024-02-23T06:54:09;7.80;99.90
18317;DHT22;9284;52.298;21.164;2024-02-23T06:56:37;7.80;99.90
18317;DHT22;9284;52.298;21.164;2024-02-23T06:59:06;7.80;99.90
18317;DHT22;9284;52.298;21.164;2024-02-23T07:01:34;7.80;99.90
18317;DHT22;9284;52.298;21.164;2024-02-23T07:04:08;7.80;99.90
18317;DHT22;9284;52.298;21.164;2024-02-23T07:06:36;7.90;99.90
18317;DHT22;9284;52.298;21.164;2024-02-23T07:09:05;7.90;99.90
18317;DHT22;9284;52.298;21.164;2024-02-23T07:11:33;7.90;99.90
18317;DHT22;9284;52.298;21.164;2024-02-23T07:14:02;7.90;99.90
18317;DHT22;9284;52.298;21.164;2024-02-23T07:16:30;8.00;99.90
18317;DHT22;9284;52.298;21.164;2024-02-23T07:18:59;8.00;99.90
18317;DHT22;9284;52.298;21.164;2024-02-23T07:21:29;8.00;99.90
18317;DHT22;9284;52.298;21.164;2024-02-23T07:23:57;8.00;99.90
18317;DHT22;9284;52.298;21.164;2024-02-23T07:26:25;8.00;99.90
18317;DHT22;9284;52.298;21.164;2024-02-23T07:28:55;8.10;99.90
18317;DHT22;9284;52.298;21.164;2024-02-23T07:31:23;8.10;99.90
18317;DHT22;9284;52.298;21.164;2024-02-23T07:33:52;8.10;99.90
18317;DHT22;9284;52.298;21.164;2024-02-23T07:36:21;8.10;99.90
18317;DHT22;9284;52.298;21.164;2024-02-23T07:38:51;8.10;99.90
18317;DHT22;9284;52.298;21.164;2024-02-23T07:41:19;8.10;99.90
18317;DHT22;9284;52.298;21.164;2024-02-23T07:43:47;8.10;99.90
18317;DHT22;9284;52.298;21.164;2024-02-23T07:46:16;8.20;99.90
18317;DHT22;9284;52.298;21.164;2024-02-23T07:48:44;8.20;99.90
18317;DHT22;9284;52.298;21.164;2024-02-23T07:51:15;8.20;99.90
18317;DHT22;9284;52.298;21.164;2024-02-23T07:53:45;8.20;99.90
18317;DHT22;9284;52.298;21.164;2024-02-23T07:56:15;8.20;99.90
18317;DHT22;9284;52.298;21.164;2024-02-23T07:58:44;8.20;99.90
18317;DHT22;9284;52.298;21.164;2024-02-23T08:01:13;8.20;99.90
18317;DHT22;9284;52.298;21.164;2024-02-23T08:03:42;8.20;99.90
18317;DHT22;9284;52.298;21.164;2024-02-23T08:06:10;8.20;99.90
18317;DHT22;9284;52.298;21.164;2024-02-23T08:08:40;8.20;99.90
18317;DHT22;9284;52.298;21.164;2024-02-23T08:11:08;8.30;99.90
18317;DHT22;9284;52.298;21.164;2024-02-23T08:13:38;8.30;99.90
18317;DHT22;9284;52.298;21.164;2024-02-23T08:16:07;8.30;99.90
18317;DHT22;9284;52.298;21.164;2024-02-23T08:18:36;8.30;99.90
18317;DHT22;9284;52.298;21.164;2024-02-23T08:21:05;8.30;99.90
18317;DHT22;9284;52.298;21.164;2024-02-23T08:23:34;8.40;99.90
18317;DHT22;9284;52.298;21.164;2024-02-23T08:26:03;8.40;99.90
18317;DHT22;9284;52.298;21.164;2024-02-23T08:28:31;8.40;99.90
18317;DHT22;9284;52.298;21.164;2024-02-23T08:31:01;8.40;99.90
18317;DHT22;9284;52.298;21.164;2024-02-23T08:33:30;8.50;99.90
18317;DHT22;9284;52.298;21.164;2024-02-23T08:35:58;8.50;99.90
18317;DHT22;9284;52.298;21.164;2024-02-23T08:38:27;8.60;99.90
18317;DHT22;9284;52.298;21.164;2024-02-23T08:40:55;8.60;99.90
18317;DHT22;9284;52.298;21.164;2024-02-23T08:43:23;8.60;99.90
18317;DHT22;9284;52.298;21.164;2024-02-23T08:45:52;8.60;99.90
18317;DHT22;9284;52.298;21.164;2024-02-23T08:48:21;8.60;99.90
18317;DHT22;9284;52.298;21.164;2024-02-23T08:50:50;8.60;99.90
18317;DHT22;9284;52.298;21.164;2024-02-23T08:53:18;8.60;99.90
18317;DHT22;9284;52.298;21.164;2024-02-23T08:55:47;8.70;99.90
18317;DHT22;9284;52.298;21.164;2024-02-23T08:58:15;8.70;99.90
18317;DHT22;9284;52.298;21.164;2024-02-23T09:00:44;8.80;99.90
18317;DHT22;9284;52.298;21.164;2024-02-23T09:03:13;8.70;99.90
18317;DHT22;9284;52.298;21.164;2024-02-23T09:05:43;8.80;99.90
18317;DHT22;9284;52.298;21.164;2024-02-23T09:08:14;8.80;99.90
18317;DHT22;9284;52.298;21.164;2024-02-23T09:10:42;8.80;99.90
18317;DHT22;9284;52.298;21.164;2024-02-23T09:13:11;8.90;99.90
18317;DHT22;9284;52.298;21.164;2024-02-23T09:15:39;8.90;99.90
18317;DHT22;9284;52.298;21.164;2024-02-23T09:18:09;8.90;99.90
18317;DHT22;9284;52.298;21.164;2024-02-23T09:20:37;9.00;99.90
18317;DHT22;9284;52.298;21.164;2024-02-23T09:23:07;9.00;99.90
18317;DHT22;9284;52.298;21.164;2024-02-23T09:25:36;9.10;99.90
18317;DHT22;9284;52.298;21.164;2024-02-23T09:28:07;9.20;99.90
18317;DHT22;9284;52.298;21.164;2024-02-23T09:30:38;9.30;99.90
18317;DHT22;9284;52.298;21.164;2024-02-23T09:33:06;9.30;99.90
18317;DHT22;9284;52.298;21.164;2024-02-23T09:35:35;9.30;99.90
18317;DHT22;9284;52.298;21.164;2024-02-23T09:38:04;9.40;99.90
18317;DHT22;9284;52.298;21.164;2024-02-23T09:40:34;9.50;99.90
18317;DHT22;9284;52.298;21.164;2024-02-23T09:43:03;9.60;99.90
18317;DHT22;9284;52.298;21.164;2024-02-23T09:45:37;9.60;99.90
18317;DHT22;9284;52.298;21.164;2024-02-23T09:48:07;9.60;99.90
18317;DHT22;9284;52.298;21.164;2024-02-23T09:50:38;9.60;99.90
18317;DHT22;9284;52.298;21.164;2024-02-23T09:53:10;9.80;99.90
18317;DHT22;9284;52.298;21.164;2024-02-23T09:55:42;9.80;99.90
18317;DHT22;9284;52.298;21.164;2024-02-23T09:58:12;9.80;99.90
18317;DHT22;9284;52.298;21.164;2024-02-23T10:00:43;9.70;99.90
18317;DHT22;9284;52.298;21.164;2024-02-23T10:03:11;9.70;99.90
18317;DHT22;9284;52.298;21.164;2024-02-23T10:05:40;9.80;99.90
18317;DHT22;9284;52.298;21.164;2024-02-23T10:08:09;9.70;99.90
18317;DHT22;9284;52.298;21.164;2024-02-23T10:10:40;9.70;99.90
18317;DHT22;9284;52.298;21.164;2024-02-23T10:13:09;9.70;90.10
18317;DHT22;9284;52.298;21.164;2024-02-23T10:15:38;9.70;92.20
18317;DHT22;9284;52.298;21.164;2024-02-23T10:18:25;9.70;96.00
18317;DHT22;9284;52.298;21.164;2024-02-23T10:20:54;9.70;93.30
18317;DHT22;9284;52.298;21.164;2024-02-23T10:23:24;9.80;99.90
18317;DHT22;9284;52.298;21.164;2024-02-23T10:25:54;9.80;99.90
18317;DHT22;9284;52.298;21.164;2024-02-23T10:28:23;9.90;99.90
18317;DHT22;9284;52.298;21.164;2024-02-23T10:30:54;9.90;99.90
18317;DHT22;9284;52.298;21.164;2024-02-23T10:33:23;10.00;99.90
18317;DHT22;9284;52.298;21.164;2024-02-23T10:35:56;10.00;99.90
18317;DHT22;9284;52.298;21.164;2024-02-23T10:38:26;9.90;95.20
18317;DHT22;9284;52.298;21.164;2024-02-23T10:40:57;9.90;92.00
18317;DHT22;9284;52.298;21.164;2024-02-23T10:43:30;9.90;91.40
18317;DHT22;9284;52.298;21.164;2024-02-23T10:46:01;9.90;96.80
18317;DHT22;9284;52.298;21.164;2024-02-23T10:48:36;9.90;99.90
18317;DHT22;9284;52.298;21.164;2024-02-23T10:51:07;9.90;99.90
18317;DHT22;9284;52.298;21.164;2024-02-23T10:53:36;10.00;99.90
18317;DHT22;9284;52.298;21.164;2024-02-23T10:56:07;10.00;99.90
18317;DHT22;9284;52.298;21.164;2024-02-23T10:58:36;10.00;99.90
18317;DHT22;9284;52.298;21.164;2024-02-23T11:01:07;9.90;99.90
18317;DHT22;9284;52.298;21.164;2024-02-23T11:03:37;10.00;99.90
18317;DHT22;9284;52.298;21.164;2024-02-23T11:06:07;10.00;96.80
18317;DHT22;9284;52.298;21.164;2024-02-23T11:08:36;10.00;98.60
18317;DHT22;9284;52.298;21.164;2024-02-23T11:11:10;10.00;99.90
18317;DHT22;9284;52.298;21.164;2024-02-23T11:13:40;10.10;99.90
18317;DHT22;9284;52.298;21.164;2024-02-23T11:16:08;10.00;99.90
18317;DHT22;9284;52.298;21.164;2024-02-23T11:18:39;10.00;99.90
18317;DHT22;9284;52.298;21.164;2024-02-23T11:21:09;10.00;99.90
18317;DHT22;9284;52.298;21.164;2024-02-23T11:23:42;10.00;99.90
18317;DHT22;9284;52.298;21.164;2024-02-23T11:26:12;10.10;99.90
18317;DHT22;9284;52.298;21.164;2024-02-23T11:28:47;10.00;99.90
18317;DHT22;9284;52.298;21.164;2024-02-23T11:31:19;10.10;99.90
18317;DHT22;9284;52.298;21.164;2024-02-23T11:33:48;10.10;99.90
18317;DHT22;9284;52.298;21.164;2024-02-23T11:36:24;10.10;99.90
18317;DHT22;9284;52.298;21.164;2024-02-23T11:38:57;10.10;99.90
18317;DHT22;9284;52.298;21.164;2024-02-23T11:41:28;10.20;99.90
18317;DHT22;9284;52.298;21.164;2024-02-23T11:43:57;10.20;99.90
18317;DHT22;9284;52.298;21.164;2024-02-23T11:46:26;10.20;99.90
18317;DHT22;9284;52.298;21.164;2024-02-23T11:48:54;10.20;99.90
18317;DHT22;9284;52.298;21.164;2024-02-23T11:51:23;10.20;99.90
18317;DHT22;9284;52.298;21.164;2024-02-23T11:53:55;10.30;99.90
18317;DHT22;9284;52.298;21.164;2024-02-23T11:56:26;10.20;99.90
18317;DHT22;9284;52.298;21.164;2024-02-23T11:58:55;10.30;99.90
18317;DHT22;9284;52.298;21.164;2024-02-23T12:01:24;10.30;99.90
18317;DHT22;9284;52.298;21.164;2024-02-23T12:03:52;10.20;99.90
18317;DHT22;9284;52.298;21.164;2024-02-23T12:06:20;10.30;99.90
18317;DHT22;9284;52.298;21.164;2024-02-23T12:08:49;10.30;99.90
18317;DHT22;9284;52.298;21.164;2024-02-23T12:11:17;10.30;99.90
18317;DHT22;9284;52.298;21.164;2024-02-23T12:13:48;10.30;99.90
18317;DHT22;9284;52.298;21.164;2024-02-23T12:16:18;10.20;99.90
18317;DHT22;9284;52.298;21.164;2024-02-23T12:18:53;10.30;99.90
18317;DHT22;9284;52.298;21.164;2024-02-23T12:21:23;10.20;99.90
18317;DHT22;9284;52.298;21.164;2024-02-23T12:23:53;10.30;99.90
18317;DHT22;9284;52.298;21.164;2024-02-23T12:26:21;10.30;99.90
18317;DHT22;9284;52.298;21.164;2024-02-23T12:28:51;10.40;99.90
18317;DHT22;9284;52.298;21.164;2024-02-23T12:31:24;10.40;99.90
18317;DHT22;9284;52.298;21.164;2024-02-23T12:33:53;10.40;99.90
18317;DHT22;9284;52.298;21.164;2024-02-23T12:36:23;10.40;99.90
18317;DHT22;9284;52.298;21.164;2024-02-23T12:38:51;10.30;99.90
18317;DHT22;9284;52.298;21.164;2024-02-23T12:41:19;10.40;99.90
18317;DHT22;9284;52.298;21.164;2024-02-23T12:43:48;10.40;99.90
18317;DHT22;9284;52.298;21.164;2024-02-23T12:46:18;10.30;99.90
18317;DHT22;9284;52.298;21.164;2024-02-23T12:48:46;10.30;99.90
18317;DHT22;9284;52.298;21.164;2024-02-23T12:51:15;10.20;99.90
18317;DHT22;9284;52.298;21.164;2024-02-23T12:53:44;10.30;99.90
18317;DHT22;9284;52.298;21.164;2024-02-23T12:56:13;10.30;99.90
18317;DHT22;9284;52.298;21.164;2024-02-23T12:58:44;10.40;99.90
18317;DHT22;9284;52.298;21.164;2024-02-23T13:01:12;10.50;99.90
18317;DHT22;9284;52.298;21.164;2024-02-23T13:03:42;10.50;99.90
18317;DHT22;9284;52.298;21.164;2024-02-23T13:06:11;10.50;99.90
18317;DHT22;9284;52.298;21.164;2024-02-23T13:08:40;10.60;99.90
18317;DHT22;9284;52.298;21.164;2024-02-23T13:11:09;10.60;99.90
18317;DHT22;9284;52.298;21.164;2024-02-23T13:13:38;10.60;99.90
18317;DHT22;9284;52.298;21.164;2024-02-23T13:16:10;10.70;99.90
18317;DHT22;9284;52.298;21.164;2024-02-23T13:18:43;10.70;99.90
18317;DHT22;9284;52.298;21.164;2024-02-23T13:21:14;10.70;99.90
18317;DHT22;9284;52.298;21.164;2024-02-23T13:23:43;10.70;99.90
18317;DHT22;9284;52.298;21.164;2024-02-23T13:26:12;10.70;99.90
18317;DHT22;9284;52.298;21.164;2024-02-23T13:28:42;10.70;99.90
18317;DHT22;9284;52.298;21.164;2024-02-23T13:31:12;10.80;99.90
18317;DHT22;9284;52.298;21.164;2024-02-23T13:33:40;10.70;99.90
18317;DHT22;9284;52.298;21.164;2024-02-23T13:36:11;10.70;99.90
18317;DHT22;9284;52.298;21.164;2024-02-23T13:38:40;10.70;99.90
18317;DHT22;9284;52.298;21.164;2024-02-23T13:41:09;10.80;99.90
18317;DHT22;9284;52.298;21.164;2024-02-23T13:43:38;10.70;99.90
18317;DHT22;9284;52.298;21.164;2024-02-23T13:46:07;10.60;99.90
18317;DHT22;9284;52.298;21.164;2024-02-23T13:48:36;10.60;99.90
18317;DHT22;9284;52.298;21.164;2024-02-23T13:51:05;10.60;99.90
18317;DHT22;9284;52.298;21.164;2024-02-23T13:53:35;10.40;99.90
18317;DHT22;9284;52.298;21.164;2024-02-23T13:56:05;10.40;99.90
18317;DHT22;9284;52.298;21.164;2024-02-23T13:58:33;10.40;99.90
18317;DHT22;9284;52.298;21.164;2024-02-23T14:01:02;10.30;99.90
18317;DHT22;9284;52.298;21.164;2024-02-23T14:03:30;10.30;99.90
18317;DHT22;9284;52.298;21.164;2024-02-23T14:05:59;10.30;99.90
18317;DHT22;9284;52.298;21.164;2024-02-23T14:08:28;10.30;99.90
18317;DHT22;9284;52.298;21.164;2024-02-23T14:10:58;10.30;99.90
18317;DHT22;9284;52.298;21.164;2024-02-23T14:13:27;10.30;99.90
18317;DHT22;9284;52.298;21.164;2024-02-23T14:15:55;10.30;99.90
18317;DHT22;9284;52.298;21.164;2024-02-23T14:18:24;10.30;99.90
18317;DHT22;9284;52.298;21.164;2024-02-23T14:20:52;10.30;99.90
18317;DHT22;9284;52.298;21.164;2024-02-23T14:23:21;10.40;99.90
18317;DHT22;9284;52.298;21.164;2024-02-23T14:25:49;10.40;99.90
18317;DHT22;9284;52.298;21.164;2024-02-23T14:28:20;10.40;99.90
18317;DHT22;9284;52.298;21.164;2024-02-23T14:30:48;10.40;99.90
18317;DHT22;9284;52.298;21.164;2024-02-23T14:33:17;10.40;99.90
18317;DHT22;9284;52.298;21.164;2024-02-23T14:35:46;10.40;99.90
18317;DHT22;9284;52.298;21.164;2024-02-23T14:38:17;10.30;99.90
18317;DHT22;9284;52.298;21.164;2024-02-23T14:40:45;10.40;99.90
18317;DHT22;9284;52.298;21.164;2024-02-23T14:43:14;10.30;99.90
18317;DHT22;9284;52.298;21.164;2024-02-23T14:45:44;10.30;99.90
18317;DHT22;9284;52.298;21.164;2024-02-23T14:48:12;10.20;99.90
18317;DHT22;9284;52.298;21.164;2024-02-23T14:50:41;10.30;99.90
18317;DHT22;9284;52.298;21.164;2024-02-23T14:53:09;10.30;99.90
18317;DHT22;9284;52.298;21.164;2024-02-23T14:55:39;10.30;99.90
18317;DHT22;9284;52.298;21.164;2024-02-23T14:58:07;10.30;99.90
18317;DHT22;9284;52.298;21.164;2024-02-23T15:00:36;10.30;99.90
18317;DHT22;9284;52.298;21.164;2024-02-23T15:03:06;10.40;99.90
18317;DHT22;9284;52.298;21.164;2024-02-23T15:05:35;10.40;99.90
18317;DHT22;9284;52.298;21.164;2024-02-23T15:08:05;10.40;99.90
18317;DHT22;9284;52.298;21.164;2024-02-23T15:10:34;10.40;99.90
18317;DHT22;9284;52.298;21.164;2024-02-23T15:13:03;10.40;99.90
18317;DHT22;9284;52.298;21.164;2024-02-23T15:15:31;10.40;99.90
18317;DHT22;9284;52.298;21.164;2024-02-23T15:18:00;10.40;99.90
18317;DHT22;9284;52.298;21.164;2024-02-23T15:20:30;10.40;99.90
18317;DHT22;9284;52.298;21.164;2024-02-23T15:22:59;10.40;99.90
18317;DHT22;9284;52.298;21.164;2024-02-23T15:25:29;10.40;99.90
18317;DHT22;9284;52.298;21.164;2024-02-23T15:27:57;10.40;99.90
18317;DHT22;9284;52.298;21.164;2024-02-23T15:30:25;10.40;99.90
18317;DHT22;9284;52.298;21.164;2024-02-23T15:32:54;10.40;99.90
18317;DHT22;9284;52.298;21.164;2024-02-23T15:35:23;10.50;99.90
18317;DHT22;9284;52.298;21.164;2024-02-23T15:37:55;10.40;99.90
18317;DHT22;9284;52.298;21.164;2024-02-23T15:40:23;10.40;99.90
18317;DHT22;9284;52.298;21.164;2024-02-23T15:42:51;10.40;99.90
18317;DHT22;9284;52.298;21.164;2024-02-23T15:45:20;10.30;99.90
18317;DHT22;9284;52.298;21.164;2024-02-23T15:47:48;10.30;99.90
18317;DHT22;9284;52.298;21.164;2024-02-23T15:50:17;10.30;99.90
18317;DHT22;9284;52.298;21.164;2024-02-23T15:53:08;10.20;99.90
18317;DHT22;9284;52.298;21.164;2024-02-23T15:55:37;10.20;99.90